createdAt,value
2023-11-17T00:01:07.562Z,99712.25
2023-11-17T00:03:39.642Z,99702.75
2023-11-17T00:06:11.151Z,99711.44
2023-11-17T00:08:43.589Z,99691.31
2023-11-17T00:11:34.957Z,99706.16
2023-11-17T00:14:12.786Z,99717.00
2023-11-17T00:16:51.331Z,99727.19
2023-11-17T00:19:25.459Z,99726.66
2023-11-17T00:21:58.916Z,99710.41
2023-11-17T00:24:28.907Z,99683.66
2023-11-17T00:27:00.912Z,99707.25
2023-11-17T00:29:34.308Z,99736.25
2023-11-17T00:32:10.344Z,99740.59
2023-11-17T00:34:43.347Z,99737.56
2023-11-17T00:37:19.950Z,99741.38
2023-11-17T00:39:51.192Z,99747.88
2023-11-17T00:42:32.268Z,99749.81
2023-11-17T00:45:05.181Z,99744.31
2023-11-17T00:47:39.061Z,99757.78
2023-11-17T00:50:22.037Z,99729.09
2023-11-17T00:53:06.173Z,99740.38
2023-11-17T00:55:41.724Z,99741.09
2023-11-17T00:58:20.456Z,99743.06
2023-11-17T01:01:00.649Z,99722.84
2023-11-17T01:03:38.399Z,99746.41
2023-11-17T01:06:12.721Z,99713.97
2023-11-17T01:08:48.504Z,99753.03
2023-11-17T01:11:21.768Z,99743.13
2023-11-17T01:13:57.198Z,99758.16
2023-11-17T01:16:32.194Z,99743.69
2023-11-17T01:19:09.812Z,99746.56
2023-11-17T01:21:42.033Z,99765.75
2023-11-17T01:24:14.989Z,99762.84
2023-11-17T01:26:48.834Z,99741.38
2023-11-17T01:29:20.713Z,99741.28
2023-11-17T01:31:52.811Z,99765.25
2023-11-17T01:34:27.322Z,99759.44
2023-11-17T01:37:05.505Z,99757.81
2023-11-17T01:39:39.023Z,99766.56
2023-11-17T01:42:12.030Z,99772.47
2023-11-17T01:44:55.375Z,99772.56
2023-11-17T01:47:29.592Z,99777.44
2023-11-17T01:50:22.765Z,99783.44
2023-11-17T01:53:03.083Z,99772.81
2023-11-17T01:55:38.122Z,99802.03
2023-11-17T01:58:11.104Z,99771.53
2023-11-17T02:00:49.493Z,99785.47
2023-11-17T02:03:21.494Z,99782.69
2023-11-17T02:05:55.756Z,99802.66
2023-11-17T02:08:44.535Z,99796.13
2023-11-17T02:11:30.074Z,99795.16
2023-11-17T02:14:10.966Z,99804.63
2023-11-17T02:17:04.978Z,99811.44
2023-11-17T02:19:42.239Z,99816.50
2023-11-17T02:22:20.833Z,99819.25
2023-11-17T02:25:13.247Z,99814.66
2023-11-17T02:27:59.747Z,99808.81
2023-11-17T02:30:39.184Z,99818.63
2023-11-17T02:33:14.417Z,99821.34
2023-11-17T02:35:50.058Z,99820.44
2023-11-17T02:38:21.720Z,99817.84
2023-11-17T02:40:56.534Z,99812.53
2023-11-17T02:43:35.341Z,99822.56
2023-11-17T02:46:11.214Z,99836.91
2023-11-17T02:48:50.701Z,99832.69
2023-11-17T02:51:28.731Z,99825.41
2023-11-17T02:54:19.005Z,99825.28
2023-11-17T02:56:51.810Z,99832.63
2023-11-17T02:59:29.663Z,99821.25
2023-11-17T03:02:06.607Z,99840.84
2023-11-17T03:04:41.996Z,99846.34
2023-11-17T03:07:14.871Z,99835.34
2023-11-17T03:09:53.907Z,99833.91
2023-11-17T03:12:28.569Z,99864.13
2023-11-17T03:14:59.571Z,99840.59
2023-11-17T03:17:34.681Z,99864.97
2023-11-17T03:20:15.217Z,99854.94
2023-11-17T03:22:53.447Z,99865.34
2023-11-17T03:25:38.494Z,99824.91
2023-11-17T03:28:17.546Z,99867.66
2023-11-17T03:30:57.275Z,99883.00
2023-11-17T03:33:46.503Z,99885.13
2023-11-17T03:36:20.050Z,99897.00
2023-11-17T03:38:53.661Z,99892.84
2023-11-17T03:44:19.563Z,99876.38
2023-11-17T03:46:51.626Z,99855.00
2023-11-17T03:49:27.265Z,99850.66
2023-11-17T03:52:04.654Z,99890.06
2023-11-17T03:54:42.573Z,99873.78
2023-11-17T03:57:26.090Z,99883.38
2023-11-17T04:00:10.801Z,99873.53
2023-11-17T04:02:53.087Z,99878.53
2023-11-17T04:05:40.963Z,99869.97
2023-11-17T04:11:05.078Z,99886.19
2023-11-17T04:13:41.304Z,99878.97
2023-11-17T04:16:16.848Z,99884.56
2023-11-17T04:18:54.154Z,99869.97
2023-11-17T04:21:29.145Z,99901.25
2023-11-17T04:24:07.145Z,99883.00
2023-11-17T04:26:41.995Z,99885.06
2023-11-17T04:29:19.955Z,99895.06
2023-11-17T04:31:51.635Z,99881.13
2023-11-17T04:34:24.941Z,99905.41
2023-11-17T04:36:59.271Z,99872.59
2023-11-17T04:39:38.656Z,99906.19
2023-11-17T04:42:16.684Z,99901.72
2023-11-17T04:44:57.628Z,99911.31
2023-11-17T04:47:36.882Z,99904.47
2023-11-17T04:50:16.021Z,99893.72
2023-11-17T04:52:55.137Z,99898.78
2023-11-17T04:55:29.388Z,99905.84
2023-11-17T04:58:01.628Z,99934.56
2023-11-17T05:00:38.548Z,99933.63
2023-11-17T05:03:11.272Z,99922.66
2023-11-17T05:05:52.685Z,99938.13
2023-11-17T05:08:32.101Z,99945.19
2023-11-17T05:11:10.437Z,99941.84
2023-11-17T05:13:51.853Z,99938.78
2023-11-17T05:16:27.525Z,99943.25
2023-11-17T05:19:01.677Z,99960.84
2023-11-17T05:21:41.163Z,99961.81
2023-11-17T05:24:13.150Z,99972.03
2023-11-17T05:26:46.879Z,99966.31
2023-11-17T05:29:22.858Z,99982.03
2023-11-17T05:32:01.292Z,99911.13
2023-11-17T05:34:34.632Z,99973.19
2023-11-17T05:37:11.060Z,99959.31
2023-11-17T05:39:49.654Z,99961.91
2023-11-17T06:29:32.750Z,99970.66
2023-11-17T06:32:18.412Z,100015.50
2023-11-17T06:35:07.923Z,100011.50
2023-11-17T06:37:40.783Z,100000.31
2023-11-17T06:40:22.182Z,99948.66
2023-11-17T06:43:03.794Z,99987.13
2023-11-17T06:45:42.500Z,100023.06
2023-11-17T06:48:17.111Z,100001.84
2023-11-17T06:50:47.118Z,100019.09
2023-11-17T06:53:24.338Z,100051.19
2023-11-17T06:55:58.983Z,100020.25
2023-11-17T06:58:32.998Z,100019.97
2023-11-17T07:01:23.860Z,100045.91
2023-11-17T07:04:06.493Z,100052.16
2023-11-17T07:06:39.824Z,100050.00
2023-11-17T07:09:20.836Z,100056.66
2023-11-17T07:11:59.937Z,100016.59
2023-11-17T07:14:31.785Z,100075.34
2023-11-17T07:17:11.599Z,100007.69
2023-11-17T07:19:48.168Z,100061.56
2023-11-17T07:22:31.169Z,100012.03
2023-11-17T07:25:01.623Z,100049.72
2023-11-17T07:27:35.782Z,100043.81
2023-11-17T07:30:13.202Z,100075.34
2023-11-17T07:32:46.790Z,100066.94
2023-11-17T07:35:23.450Z,100064.25
2023-11-17T07:37:56.344Z,100074.38
2023-11-17T07:40:31.822Z,100056.56
2023-11-17T07:43:04.916Z,100059.13
2023-11-17T07:45:34.787Z,100074.09
2023-11-17T07:48:09.667Z,100076.56
2023-11-17T07:50:54.832Z,100057.28
2023-11-17T07:53:32.146Z,100080.78
2023-11-17T07:56:02.244Z,100072.50
2023-11-17T07:58:42.508Z,100077.16
2023-11-17T08:01:58.183Z,99994.03
2023-11-17T08:04:55.498Z,100005.63
2023-11-17T08:07:50.875Z,99879.47
2023-11-17T08:10:35.168Z,99854.94
2023-11-17T08:13:23.751Z,100103.78
2023-11-17T08:15:58.192Z,99961.13
2023-11-17T08:18:35.724Z,100105.03
2023-11-17T08:21:30.336Z,99998.88
2023-11-17T08:24:22.762Z,99967.25
2023-11-17T08:26:59.162Z,100113.16
2023-11-17T08:30:01.201Z,100131.41
2023-11-17T08:33:33.232Z,100104.06
2023-11-17T08:36:21.467Z,100123.78
2023-11-17T08:38:53.674Z,100125.75
2023-11-17T08:41:35.508Z,100122.59
2023-11-17T08:44:12.047Z,100113.19
2023-11-17T08:46:48.803Z,100112.09
2023-11-17T08:49:22.636Z,100061.09
2023-11-17T08:52:29.953Z,100146.47
2023-11-17T08:55:07.145Z,100051.25
2023-11-17T09:03:55.637Z,100026.97
2023-11-17T09:06:27.818Z,99942.59
2023-11-17T09:09:20.259Z,100125.56
2023-11-17T09:12:06.693Z,100115.66
2023-11-17T09:15:09.121Z,100123.03
2023-11-17T09:17:42.367Z,100140.81
2023-11-17T09:29:17.597Z,100162.97
2023-11-17T09:41:38.471Z,100138.06
2023-11-17T09:44:14.687Z,100165.06
2023-11-17T10:27:59.838Z,100189.44
2023-11-17T10:33:27.505Z,100178.72
2023-11-17T10:36:11.351Z,100177.59
2023-11-17T10:38:47.079Z,100194.19
2023-11-17T10:42:11.569Z,100196.09
2023-11-17T10:51:28.325Z,100185.31
2023-11-17T10:54:24.311Z,100194.22
2023-11-17T10:57:20.588Z,100121.00
2023-11-17T11:01:13.724Z,100124.72
2023-11-17T11:04:54.749Z,100057.75
2023-11-17T11:08:28.297Z,100094.41
2023-11-17T11:14:24.856Z,100196.31
2023-11-17T11:21:21.905Z,100126.22
2023-11-17T11:27:38.035Z,100198.91
2023-11-17T11:30:50.505Z,100219.25
2023-11-17T11:36:56.228Z,100219.59
2023-11-17T11:39:32.726Z,100230.72
2023-11-17T11:42:08.501Z,100240.28
2023-11-17T11:44:39.905Z,100209.91
2023-11-17T11:50:23.053Z,100250.75
2023-11-17T11:56:52.202Z,100225.50
2023-11-17T11:59:41.245Z,100259.63
2023-11-17T12:02:18.963Z,100247.28
2023-11-17T12:05:07.442Z,100141.41
2023-11-17T12:07:44.352Z,100262.56
2023-11-17T12:13:12.091Z,100192.44
2023-11-17T12:15:57.490Z,100257.50
2023-11-17T12:18:47.824Z,100263.13
2023-11-17T12:21:25.986Z,100233.66
2023-11-17T12:28:27.726Z,100258.88
2023-11-17T12:31:08.515Z,100260.59
2023-11-17T12:36:29.661Z,100292.06
2023-11-17T12:39:05.107Z,100282.09
2023-11-17T12:48:41.904Z,100306.19
2023-11-17T12:51:56.043Z,100290.56
2023-11-17T12:55:12.840Z,100287.31
2023-11-17T12:58:07.763Z,100320.06
2023-11-17T13:01:01.788Z,100322.59
2023-11-17T13:03:44.161Z,100312.78
2023-11-17T13:06:26.481Z,100334.00
2023-11-17T13:09:16.835Z,100330.50
2023-11-17T13:15:03.615Z,100294.38
2023-11-17T13:17:46.416Z,100286.69
2023-11-17T13:55:01.892Z,100204.25
2023-11-17T13:57:35.577Z,100336.66
2023-11-17T14:00:12.781Z,100349.06
2023-11-17T14:02:47.640Z,100354.03
2023-11-17T14:05:21.698Z,100369.66
2023-11-17T14:08:08.611Z,100355.41
2023-11-17T14:10:57.536Z,100361.03
2023-11-17T14:13:36.142Z,100364.28
2023-11-17T14:16:18.893Z,100365.22
2023-11-17T14:22:15.500Z,100192.47
2023-11-17T14:25:08.691Z,100356.88
2023-11-17T14:28:21.675Z,100354.88
2023-11-17T14:30:56.612Z,100361.31
2023-11-17T14:33:30.838Z,100327.31
2023-11-17T14:36:05.744Z,100366.50
2023-11-17T14:38:48.027Z,100370.25
2023-11-17T14:41:26.645Z,100360.88
2023-11-17T14:44:32.665Z,100357.94
2023-11-17T14:47:12.770Z,100385.59
2023-11-17T14:49:58.219Z,100363.50
2023-11-17T14:52:42.212Z,100336.25
2023-11-17T14:55:20.547Z,100346.34
2023-11-17T15:01:10.168Z,100359.06
2023-11-17T15:03:47.146Z,100340.22
2023-11-17T15:06:22.811Z,100383.59
2023-11-17T15:09:14.560Z,100405.88
2023-11-17T15:12:21.006Z,100396.28
2023-11-17T15:15:29.864Z,100313.22
2023-11-17T15:18:12.178Z,100416.16
2023-11-17T15:20:47.975Z,100409.53
2023-11-17T15:23:21.303Z,100422.50
2023-11-17T15:26:07.070Z,100417.91
2023-11-17T15:28:56.407Z,100422.91
2023-11-17T15:31:41.402Z,100401.19
2023-11-17T15:34:26.162Z,100436.22
2023-11-17T15:36:59.535Z,100447.22
2023-11-17T15:39:36.864Z,100439.78
2023-11-17T15:42:16.838Z,100443.53
2023-11-17T15:44:55.244Z,100435.19
2023-11-17T15:47:36.577Z,100452.88
2023-11-17T15:50:40.766Z,100322.09
2023-11-17T15:53:17.427Z,100449.19
2023-11-17T15:56:08.254Z,100447.22
2023-11-17T15:59:05.927Z,100421.22
2023-11-17T16:01:39.550Z,100444.22
2023-11-17T16:04:35.512Z,100452.34
2023-11-17T16:07:16.311Z,100440.75
2023-11-17T16:10:01.188Z,100441.53
2023-11-17T16:23:37.912Z,100435.06
2023-11-17T16:29:45.292Z,100353.97
2023-11-17T16:32:38.381Z,100466.81
2023-11-17T16:35:20.471Z,100451.38
2023-11-17T16:41:37.740Z,100460.91
2023-11-17T16:44:18.947Z,100467.44
2023-11-17T16:46:55.906Z,100460.91
2023-11-17T16:49:27.005Z,100467.06
2023-11-17T16:52:12.143Z,100474.47
2023-11-17T16:54:50.830Z,100474.47
2023-11-17T16:57:25.845Z,100486.94
2023-11-17T17:00:16.914Z,100489.47
2023-11-17T17:02:50.754Z,100475.97
2023-11-17T17:05:28.765Z,100487.84
2023-11-17T17:08:34.859Z,100469.44
2023-11-17T17:11:16.103Z,100497.84
2023-11-17T17:14:17.270Z,100491.84
2023-11-17T17:20:38.623Z,100502.19
2023-11-17T17:23:31.368Z,100509.78
2023-11-17T17:26:11.970Z,100481.28
2023-11-17T17:28:58.987Z,100457.97
2023-11-17T17:31:39.301Z,100498.97
2023-11-17T17:34:10.129Z,100513.41
2023-11-17T17:36:47.196Z,100506.09
2023-11-17T17:39:33.241Z,100503.41
2023-11-17T17:42:08.011Z,100513.16
2023-11-17T17:44:50.953Z,100493.44
2023-11-17T17:47:27.683Z,100497.63
2023-11-17T17:50:36.023Z,100510.34
2023-11-17T17:53:20.549Z,100495.44
2023-11-17T17:55:57.688Z,100504.88
2023-11-17T17:58:33.557Z,100512.47
2023-11-17T18:01:29.996Z,100490.97
2023-11-17T18:04:12.109Z,100501.53
2023-11-17T18:06:49.798Z,100510.41
2023-11-17T18:09:29.703Z,100517.56
2023-11-17T18:12:07.815Z,100520.72
2023-11-17T18:15:09.795Z,100516.00
2023-11-17T18:18:02.629Z,100503.09
2023-11-17T18:20:42.541Z,100487.91
2023-11-17T18:23:19.138Z,100513.13
2023-11-17T18:26:35.921Z,100527.16
2023-11-17T18:29:23.829Z,100527.53
2023-11-17T18:32:03.457Z,100527.81
2023-11-17T18:34:37.554Z,100530.47
2023-11-17T18:37:07.959Z,100532.91
2023-11-17T18:39:46.833Z,100520.97
2023-11-17T18:42:29.517Z,100519.22
2023-11-17T18:45:05.428Z,100535.72
2023-11-17T18:47:41.400Z,100544.34
2023-11-17T18:50:19.354Z,100521.78
2023-11-17T18:53:07.604Z,100498.69
2023-11-17T18:55:59.512Z,100529.69
2023-11-17T18:58:44.084Z,100535.25
2023-11-17T19:01:18.986Z,100545.44
2023-11-17T19:03:51.784Z,100537.06
2023-11-17T19:11:11.552Z,100547.78
2023-11-17T19:13:52.633Z,100510.03
2023-11-17T19:16:28.261Z,100526.88
2023-11-17T19:19:05.381Z,100520.63
2023-11-17T19:21:39.837Z,100535.53
2023-11-17T19:24:23.714Z,100536.22
2023-11-17T19:27:29.532Z,100540.97
2023-11-17T19:37:08.826Z,100394.25
2023-11-17T19:39:51.428Z,100519.31
2023-11-17T19:42:34.602Z,100550.19
2023-11-17T19:45:11.673Z,100557.25
2023-11-17T19:47:44.165Z,100552.50
2023-11-17T19:50:19.213Z,100561.91
2023-11-17T19:53:02.857Z,100547.28
2023-11-17T19:55:40.071Z,100553.50
2023-11-17T19:58:16.112Z,100516.34
2023-11-17T20:01:19.464Z,100512.22
2023-11-17T20:03:52.283Z,100546.22
2023-11-17T20:06:30.138Z,100559.56
2023-11-17T20:09:20.536Z,100562.22
2023-11-17T20:12:11.195Z,100539.31
2023-11-17T20:14:58.188Z,100539.19
2023-11-17T20:17:44.750Z,100564.78
2023-11-17T20:20:57.400Z,100540.31
2023-11-17T20:27:46.126Z,100564.81
2023-11-17T20:30:31.362Z,100563.16
2023-11-17T20:33:16.487Z,100567.13
2023-11-17T20:39:16.094Z,100560.97
2023-11-17T20:42:01.463Z,100566.13
2023-11-17T20:44:53.089Z,100568.13
2023-11-17T20:47:26.499Z,100550.91
2023-11-17T20:49:59.855Z,100580.28
2023-11-17T20:52:39.989Z,100587.59
2023-11-17T20:55:20.469Z,100553.09
2023-11-17T20:57:52.702Z,100566.63
2023-11-17T21:00:36.106Z,100585.00
2023-11-17T21:03:14.340Z,100580.06
2023-11-17T21:05:52.203Z,100577.81
2023-11-17T21:08:25.665Z,100592.28
2023-11-17T21:13:36.601Z,100605.03
2023-11-17T21:16:11.687Z,100598.63
2023-11-17T21:19:00.420Z,100619.56
2023-11-17T21:24:23.026Z,100596.28
2023-11-17T21:27:11.272Z,100606.75
2023-11-17T21:29:51.370Z,100613.56
2023-11-17T21:32:27.912Z,100613.44
2023-11-17T21:34:59.075Z,100616.41
2023-11-17T21:37:37.922Z,100609.97
2023-11-17T21:40:16.394Z,100622.00
2023-11-17T21:42:48.782Z,100597.72
2023-11-17T21:45:25.074Z,100617.63
2023-11-17T21:47:59.645Z,100623.91
2023-11-17T21:50:31.974Z,100621.28
2023-11-17T21:53:10.495Z,100615.41
2023-11-17T21:55:43.355Z,100630.06
2023-11-17T23:36:10.526Z,100567.25
2023-11-17T23:51:30.819Z,100422.00
2023-11-17T23:54:37.374Z,100672.16
2023-11-17T23:57:58.455Z,100647.88
